sensor_id;sensor_type;location;lat;lon;timestamp;temperature;humidity
6518;DHT22;3292;48.944;9.240;2023-08-20T00:00:54;22.80;99.90
6518;DHT22;3292;48.944;9.240;2023-08-20T00:03:22;22.80;99.90
6518;DHT22;3292;48.944;9.240;2023-08-20T00:05:49;22.80;99.90
6518;DHT22;3292;48.944;9.240;2023-08-20T00:08:16;22.80;99.90
6518;DHT22;3292;48.944;9.240;2023-08-20T00:10:44;22.70;99.90
6518;DHT22;3292;48.944;9.240;2023-08-20T00:13:11;22.70;99.90
6518;DHT22;3292;48.944;9.240;2023-08-20T00:15:38;22.70;99.90
6518;DHT22;3292;48.944;9.240;2023-08-20T00:18:06;22.70;99.90
6518;DHT22;3292;48.944;9.240;2023-08-20T00:20:34;22.70;99.90
6518;DHT22;3292;48.944;9.240;2023-08-20T00:23:01;22.70;99.90
6518;DHT22;3292;48.944;9.240;2023-08-20T00:25:28;22.60;99.90
6518;DHT22;3292;48.944;9.240;2023-08-20T00:27:57;22.60;99.90
6518;DHT22;3292;48.944;9.240;2023-08-20T00:30:23;22.60;99.90
6518;DHT22;3292;48.944;9.240;2023-08-20T00:32:50;22.60;99.90
6518;DHT22;3292;48.944;9.240;2023-08-20T00:35:18;22.50;99.90
6518;DHT22;3292;48.944;9.240;2023-08-20T00:37:45;22.50;99.90
6518;DHT22;3292;48.944;9.240;2023-08-20T00:40:12;22.50;99.90
6518;DHT22;3292;48.944;9.240;2023-08-20T00:42:39;22.50;99.90
6518;DHT22;3292;48.944;9.240;2023-08-20T00:45:08;22.50;99.90
6518;DHT22;3292;48.944;9.240;2023-08-20T00:47:35;22.50;99.90
6518;DHT22;3292;48.944;9.240;2023-08-20T00:50:02;22.40;99.90
6518;DHT22;3292;48.944;9.240;2023-08-20T00:52:32;22.40;99.90
6518;DHT22;3292;48.944;9.240;2023-08-20T00:54:59;22.40;99.90
6518;DHT22;3292;48.944;9.240;2023-08-20T00:57:27;22.30;99.90
6518;DHT22;3292;48.944;9.240;2023-08-20T00:59:55;22.30;99.90
6518;DHT22;3292;48.944;9.240;2023-08-20T01:02:24;22.30;99.90
6518;DHT22;3292;48.944;9.240;2023-08-20T01:04:51;22.20;99.90
6518;DHT22;3292;48.944;9.240;2023-08-20T01:07:22;22.20;99.90
6518;DHT22;3292;48.944;9.240;2023-08-20T01:09:57;22.20;99.90
6518;DHT22;3292;48.944;9.240;2023-08-20T01:12:29;22.20;99.90
6518;DHT22;3292;48.944;9.240;2023-08-20T01:14:56;22.20;99.90
6518;DHT22;3292;48.944;9.240;2023-08-20T01:17:24;22.20;99.90
6518;DHT22;3292;48.944;9.240;2023-08-20T01:19:50;22.20;99.90
6518;DHT22;3292;48.944;9.240;2023-08-20T01:22:40;22.10;99.90
6518;DHT22;3292;48.944;9.240;2023-08-20T01:25:21;22.10;99.90
6518;DHT22;3292;48.944;9.240;2023-08-20T01:28:03;22.10;99.90
6518;DHT22;3292;48.944;9.240;2023-08-20T01:30:37;22.10;99.90
6518;DHT22;3292;48.944;9.240;2023-08-20T01:33:04;22.10;99.90
6518;DHT22;3292;48.944;9.240;2023-08-20T01:35:32;22.10;99.90
6518;DHT22;3292;48.944;9.240;2023-08-20T01:37:58;22.10;99.90
6518;DHT22;3292;48.944;9.240;2023-08-20T01:40:25;22.10;99.90
6518;DHT22;3292;48.944;9.240;2023-08-20T01:42:52;22.00;99.90
6518;DHT22;3292;48.944;9.240;2023-08-20T01:45:19;21.90;99.90
6518;DHT22;3292;48.944;9.240;2023-08-20T01:47:48;21.90;99.90
6518;DHT22;3292;48.944;9.240;2023-08-20T01:50:15;21.90;99.90
6518;DHT22;3292;48.944;9.240;2023-08-20T01:52:42;21.90;99.90
6518;DHT22;3292;48.944;9.240;2023-08-20T01:55:09;21.90;99.90
6518;DHT22;3292;48.944;9.240;2023-08-20T01:57:36;21.80;99.90
6518;DHT22;3292;48.944;9.240;2023-08-20T02:00:04;21.80;99.90
6518;DHT22;3292;48.944;9.240;2023-08-20T02:02:32;21.80;99.90
6518;DHT22;3292;48.944;9.240;2023-08-20T02:05:01;21.80;99.90
6518;DHT22;3292;48.944;9.240;2023-08-20T02:07:28;21.80;99.90
6518;DHT22;3292;48.944;9.240;2023-08-20T02:09:55;21.80;99.90
6518;DHT22;3292;48.944;9.240;2023-08-20T02:12:21;21.80;99.90
6518;DHT22;3292;48.944;9.240;2023-08-20T02:14:48;21.80;99.90
6518;DHT22;3292;48.944;9.240;2023-08-20T02:17:15;21.80;99.90
6518;DHT22;3292;48.944;9.240;2023-08-20T02:19:42;21.80;99.90
6518;DHT22;3292;48.944;9.240;2023-08-20T02:22:10;21.70;99.90
6518;DHT22;3292;48.944;9.240;2023-08-20T02:24:37;21.70;99.90
6518;DHT22;3292;48.944;9.240;2023-08-20T02:27:04;21.70;99.90
6518;DHT22;3292;48.944;9.240;2023-08-20T02:29:31;21.70;99.90
6518;DHT22;3292;48.944;9.240;2023-08-20T02:31:58;21.60;99.90
6518;DHT22;3292;48.944;9.240;2023-08-20T02:34:24;21.60;99.90
6518;DHT22;3292;48.944;9.240;2023-08-20T02:36:51;21.60;99.90
6518;DHT22;3292;48.944;9.240;2023-08-20T02:39:20;21.60;99.90
6518;DHT22;3292;48.944;9.240;2023-08-20T02:41:47;21.60;99.90
6518;DHT22;3292;48.944;9.240;2023-08-20T02:44:13;21.60;99.90
6518;DHT22;3292;48.944;9.240;2023-08-20T02:46:40;21.60;99.90
6518;DHT22;3292;48.944;9.240;2023-08-20T02:49:07;21.60;99.90
6518;DHT22;3292;48.944;9.240;2023-08-20T02:51:34;21.50;99.90
6518;DHT22;3292;48.944;9.240;2023-08-20T02:54:00;21.40;99.90
6518;DHT22;3292;48.944;9.240;2023-08-20T02:56:29;21.40;99.90
6518;DHT22;3292;48.944;9.240;2023-08-20T02:58:56;21.30;99.90
6518;DHT22;3292;48.944;9.240;2023-08-20T03:01:25;21.30;99.90
6518;DHT22;3292;48.944;9.240;2023-08-20T03:03:52;21.30;99.90
6518;DHT22;3292;48.944;9.240;2023-08-20T03:06:18;21.30;99.90
6518;DHT22;3292;48.944;9.240;2023-08-20T03:08:46;21.20;99.90
6518;DHT22;3292;48.944;9.240;2023-08-20T03:11:12;21.10;99.90
6518;DHT22;3292;48.944;9.240;2023-08-20T03:13:40;21.10;99.90
6518;DHT22;3292;48.944;9.240;2023-08-20T03:16:07;21.10;99.90
6518;DHT22;3292;48.944;9.240;2023-08-20T03:18:34;21.10;99.90
6518;DHT22;3292;48.944;9.240;2023-08-20T03:21:01;21.10;99.90
6518;DHT22;3292;48.944;9.240;2023-08-20T03:23:29;21.10;99.90
6518;DHT22;3292;48.944;9.240;2023-08-20T03:25:57;21.00;99.90
6518;DHT22;3292;48.944;9.240;2023-08-20T03:28:24;21.00;99.90
6518;DHT22;3292;48.944;9.240;2023-08-20T03:30:52;21.10;99.90
6518;DHT22;3292;48.944;9.240;2023-08-20T03:33:19;21.10;99.90
6518;DHT22;3292;48.944;9.240;2023-08-20T03:35:46;21.10;99.90
6518;DHT22;3292;48.944;9.240;2023-08-20T03:38:12;21.00;99.90
6518;DHT22;3292;48.944;9.240;2023-08-20T03:40:39;21.00;99.90
6518;DHT22;3292;48.944;9.240;2023-08-20T03:43:06;21.10;99.90
6518;DHT22;3292;48.944;9.240;2023-08-20T03:45:33;21.10;99.90
6518;DHT22;3292;48.944;9.240;2023-08-20T03:48:01;21.00;99.90
6518;DHT22;3292;48.944;9.240;2023-08-20T03:50:27;21.10;99.90
6518;DHT22;3292;48.944;9.240;2023-08-20T03:52:54;21.00;99.90
6518;DHT22;3292;48.944;9.240;2023-08-20T03:55:21;21.00;99.90
6518;DHT22;3292;48.944;9.240;2023-08-20T03:57:48;20.90;99.90
6518;DHT22;3292;48.944;9.240;2023-08-20T04:00:15;20.90;99.90
6518;DHT22;3292;48.944;9.240;2023-08-20T04:02:42;20.80;99.90
6518;DHT22;3292;48.944;9.240;2023-08-20T04:05:10;20.70;99.90
6518;DHT22;3292;48.944;9.240;2023-08-20T04:07:37;20.60;99.90
6518;DHT22;3292;48.944;9.240;2023-08-20T04:10:04;20.50;99.90
6518;DHT22;3292;48.944;9.240;2023-08-20T04:12:31;20.60;99.90
6518;DHT22;3292;48.944;9.240;2023-08-20T04:14:57;20.60;99.90
6518;DHT22;3292;48.944;9.240;2023-08-20T04:17:24;20.60;99.90
6518;DHT22;3292;48.944;9.240;2023-08-20T04:19:51;20.60;99.90
6518;DHT22;3292;48.944;9.240;2023-08-20T04:22:19;20.60;99.90
6518;DHT22;3292;48.944;9.240;2023-08-20T04:24:46;20.60;99.90
6518;DHT22;3292;48.944;9.240;2023-08-20T04:27:12;20.60;99.90
6518;DHT22;3292;48.944;9.240;2023-08-20T04:29:39;20.50;99.90
6518;DHT22;3292;48.944;9.240;2023-08-20T04:32:06;20.50;99.90
6518;DHT22;3292;48.944;9.240;2023-08-20T04:34:33;20.50;99.90
6518;DHT22;3292;48.944;9.240;2023-08-20T04:37:00;20.50;99.90
6518;DHT22;3292;48.944;9.240;2023-08-20T04:39:28;20.50;99.90
6518;DHT22;3292;48.944;9.240;2023-08-20T04:41:55;20.40;99.90
6518;DHT22;3292;48.944;9.240;2023-08-20T04:44:23;20.40;99.90
6518;DHT22;3292;48.944;9.240;2023-08-20T04:46:50;20.40;99.90
6518;DHT22;3292;48.944;9.240;2023-08-20T04:49:17;20.40;99.90
6518;DHT22;3292;48.944;9.240;2023-08-20T04:51:43;20.40;99.90
6518;DHT22;3292;48.944;9.240;2023-08-20T04:54:10;20.30;99.90
6518;DHT22;3292;48.944;9.240;2023-08-20T04:56:38;20.30;99.90
6518;DHT22;3292;48.944;9.240;2023-08-20T04:59:05;20.30;99.90
6518;DHT22;3292;48.944;9.240;2023-08-20T05:01:32;20.40;99.90
6518;DHT22;3292;48.944;9.240;2023-08-20T05:03:59;20.40;99.90
6518;DHT22;3292;48.944;9.240;2023-08-20T05:06:25;20.40;99.90
6518;DHT22;3292;48.944;9.240;2023-08-20T05:08:52;20.40;99.90
6518;DHT22;3292;48.944;9.240;2023-08-20T05:11:19;20.50;99.90
6518;DHT22;3292;48.944;9.240;2023-08-20T05:13:48;20.50;99.90
6518;DHT22;3292;48.944;9.240;2023-08-20T05:16:16;20.60;99.90
6518;DHT22;3292;48.944;9.240;2023-08-20T05:18:42;20.70;99.90
6518;DHT22;3292;48.944;9.240;2023-08-20T05:21:09;20.70;99.90
6518;DHT22;3292;48.944;9.240;2023-08-20T05:23:39;20.80;99.90
6518;DHT22;3292;48.944;9.240;2023-08-20T05:26:05;20.90;99.90
6518;DHT22;3292;48.944;9.240;2023-08-20T05:28:32;20.90;99.90
6518;DHT22;3292;48.944;9.240;2023-08-20T05:31:01;21.10;99.90
6518;DHT22;3292;48.944;9.240;2023-08-20T05:33:27;21.40;99.90
6518;DHT22;3292;48.944;9.240;2023-08-20T05:35:54;21.90;99.90
6518;DHT22;3292;48.944;9.240;2023-08-20T05:38:21;22.30;99.90
6518;DHT22;3292;48.944;9.240;2023-08-20T05:40:48;22.40;99.90
6518;DHT22;3292;48.944;9.240;2023-08-20T05:43:14;22.50;99.90
6518;DHT22;3292;48.944;9.240;2023-08-20T05:45:41;22.80;99.90
6518;DHT22;3292;48.944;9.240;2023-08-20T05:48:10;23.10;99.90
6518;DHT22;3292;48.944;9.240;2023-08-20T05:50:37;23.60;99.90
6518;DHT22;3292;48.944;9.240;2023-08-20T05:53:04;24.00;99.90
6518;DHT22;3292;48.944;9.240;2023-08-20T05:55:30;24.40;99.90
6518;DHT22;3292;48.944;9.240;2023-08-20T05:57:57;24.70;99.90
6518;DHT22;3292;48.944;9.240;2023-08-20T06:00:24;25.00;99.90
6518;DHT22;3292;48.944;9.240;2023-08-20T06:02:50;25.20;99.90
6518;DHT22;3292;48.944;9.240;2023-08-20T06:05:19;25.10;99.90
6518;DHT22;3292;48.944;9.240;2023-08-20T06:07:45;25.30;99.90
6518;DHT22;3292;48.944;9.240;2023-08-20T06:10:12;25.50;99.90
6518;DHT22;3292;48.944;9.240;2023-08-20T06:12:39;25.60;99.90
6518;DHT22;3292;48.944;9.240;2023-08-20T06:15:07;25.80;99.90
6518;DHT22;3292;48.944;9.240;2023-08-20T06:17:34;25.70;99.90
6518;DHT22;3292;48.944;9.240;2023-08-20T06:20:01;25.70;99.90
6518;DHT22;3292;48.944;9.240;2023-08-20T06:22:32;25.50;99.90
6518;DHT22;3292;48.944;9.240;2023-08-20T06:24:58;25.70;99.90
6518;DHT22;3292;48.944;9.240;2023-08-20T06:27:25;25.30;99.90
6518;DHT22;3292;48.944;9.240;2023-08-20T06:29:52;25.10;99.90
6518;DHT22;3292;48.944;9.240;2023-08-20T06:32:19;25.10;99.90
6518;DHT22;3292;48.944;9.240;2023-08-20T06:34:46;25.40;99.90
6518;DHT22;3292;48.944;9.240;2023-08-20T06:37:13;25.40;99.90
6518;DHT22;3292;48.944;9.240;2023-08-20T06:39:41;25.40;99.90
6518;DHT22;3292;48.944;9.240;2023-08-20T06:42:08;25.70;99.90
6518;DHT22;3292;48.944;9.240;2023-08-20T06:44:34;25.90;99.90
6518;DHT22;3292;48.944;9.240;2023-08-20T06:47:01;25.80;99.90
6518;DHT22;3292;48.944;9.240;2023-08-20T06:49:28;25.70;99.90
6518;DHT22;3292;48.944;9.240;2023-08-20T06:51:55;25.70;99.90
6518;DHT22;3292;48.944;9.240;2023-08-20T06:54:22;25.60;99.90
6518;DHT22;3292;48.944;9.240;2023-08-20T06:56:50;25.50;99.90
6518;DHT22;3292;48.944;9.240;2023-08-20T06:59:17;25.40;99.90
6518;DHT22;3292;48.944;9.240;2023-08-20T07:01:44;25.40;99.90
6518;DHT22;3292;48.944;9.240;2023-08-20T07:04:11;25.50;99.90
6518;DHT22;3292;48.944;9.240;2023-08-20T07:06:39;25.70;99.90
6518;DHT22;3292;48.944;9.240;2023-08-20T07:09:05;25.80;99.90
6518;DHT22;3292;48.944;9.240;2023-08-20T07:11:32;25.90;99.90
6518;DHT22;3292;48.944;9.240;2023-08-20T07:14:00;26.20;99.90
6518;DHT22;3292;48.944;9.240;2023-08-20T07:16:28;26.60;99.90
6518;DHT22;3292;48.944;9.240;2023-08-20T07:18:55;27.00;99.90
6518;DHT22;3292;48.944;9.240;2023-08-20T07:21:21;27.10;99.90
6518;DHT22;3292;48.944;9.240;2023-08-20T07:23:48;27.20;99.90
6518;DHT22;3292;48.944;9.240;2023-08-20T07:26:15;27.20;99.90
6518;DHT22;3292;48.944;9.240;2023-08-20T07:28:42;27.00;99.90
6518;DHT22;3292;48.944;9.240;2023-08-20T07:31:27;27.30;99.90
6518;DHT22;3292;48.944;9.240;2023-08-20T07:33:55;27.60;99.90
6518;DHT22;3292;48.944;9.240;2023-08-20T07:36:23;27.50;99.90
6518;DHT22;3292;48.944;9.240;2023-08-20T07:38:50;27.50;99.90
6518;DHT22;3292;48.944;9.240;2023-08-20T07:41:17;27.40;99.90
6518;DHT22;3292;48.944;9.240;2023-08-20T07:43:45;27.40;99.90
6518;DHT22;3292;48.944;9.240;2023-08-20T07:46:13;27.50;99.90
6518;DHT22;3292;48.944;9.240;2023-08-20T07:48:41;27.20;99.90
6518;DHT22;3292;48.944;9.240;2023-08-20T07:51:08;27.20;99.90
6518;DHT22;3292;48.944;9.240;2023-08-20T07:53:35;26.80;99.90
6518;DHT22;3292;48.944;9.240;2023-08-20T07:56:02;27.00;99.90
6518;DHT22;3292;48.944;9.240;2023-08-20T07:58:29;27.00;99.90
6518;DHT22;3292;48.944;9.240;2023-08-20T08:00:56;26.90;99.90
6518;DHT22;3292;48.944;9.240;2023-08-20T08:03:24;26.90;99.90
6518;DHT22;3292;48.944;9.240;2023-08-20T08:05:53;26.80;99.90
6518;DHT22;3292;48.944;9.240;2023-08-20T08:08:20;26.80;99.90
6518;DHT22;3292;48.944;9.240;2023-08-20T08:10:47;26.60;99.90
6518;DHT22;3292;48.944;9.240;2023-08-20T08:13:19;26.80;99.90
6518;DHT22;3292;48.944;9.240;2023-08-20T08:15:45;27.00;99.90
6518;DHT22;3292;48.944;9.240;2023-08-20T08:18:12;27.40;99.90
6518;DHT22;3292;48.944;9.240;2023-08-20T08:20:39;27.60;99.90
6518;DHT22;3292;48.944;9.240;2023-08-20T08:23:07;27.70;99.90
6518;DHT22;3292;48.944;9.240;2023-08-20T08:25:34;28.00;99.90
6518;DHT22;3292;48.944;9.240;2023-08-20T08:28:01;28.00;99.90
6518;DHT22;3292;48.944;9.240;2023-08-20T08:30:28;27.90;99.90
6518;DHT22;3292;48.944;9.240;2023-08-20T08:32:55;27.90;99.90
6518;DHT22;3292;48.944;9.240;2023-08-20T08:35:22;28.00;99.90
6518;DHT22;3292;48.944;9.240;2023-08-20T08:37:49;28.10;99.90
6518;DHT22;3292;48.944;9.240;2023-08-20T08:40:17;28.30;99.90
6518;DHT22;3292;48.944;9.240;2023-08-20T08:42:46;28.50;99.90
6518;DHT22;3292;48.944;9.240;2023-08-20T08:45:16;28.70;99.90
6518;DHT22;3292;48.944;9.240;2023-08-20T08:47:44;28.80;99.90
6518;DHT22;3292;48.944;9.240;2023-08-20T08:50:11;29.00;99.90
6518;DHT22;3292;48.944;9.240;2023-08-20T08:52:39;29.20;99.90
6518;DHT22;3292;48.944;9.240;2023-08-20T08:55:07;29.20;99.90
6518;DHT22;3292;48.944;9.240;2023-08-20T08:57:37;29.20;99.90
6518;DHT22;3292;48.944;9.240;2023-08-20T09:00:05;29.20;99.90
6518;DHT22;3292;48.944;9.240;2023-08-20T09:02:32;29.40;99.90
6518;DHT22;3292;48.944;9.240;2023-08-20T09:04:59;29.60;99.90
6518;DHT22;3292;48.944;9.240;2023-08-20T09:07:26;29.50;99.90
6518;DHT22;3292;48.944;9.240;2023-08-20T09:09:58;29.70;99.90
6518;DHT22;3292;48.944;9.240;2023-08-20T09:12:25;29.70;99.90
6518;DHT22;3292;48.944;9.240;2023-08-20T09:14:54;29.70;99.90
6518;DHT22;3292;48.944;9.240;2023-08-20T09:17:26;30.00;99.90
6518;DHT22;3292;48.944;9.240;2023-08-20T09:19:54;30.20;99.90
6518;DHT22;3292;48.944;9.240;2023-08-20T09:22:22;30.30;99.90
6518;DHT22;3292;48.944;9.240;2023-08-20T09:24:53;30.40;99.90
6518;DHT22;3292;48.944;9.240;2023-08-20T09:27:20;30.60;99.90
6518;DHT22;3292;48.944;9.240;2023-08-20T09:29:48;30.70;99.90
6518;DHT22;3292;48.944;9.240;2023-08-20T09:32:18;30.70;99.90
6518;DHT22;3292;48.944;9.240;2023-08-20T09:34:45;31.00;99.90
6518;DHT22;3292;48.944;9.240;2023-08-20T09:37:13;31.10;99.90
6518;DHT22;3292;48.944;9.240;2023-08-20T09:39:40;31.10;99.90
6518;DHT22;3292;48.944;9.240;2023-08-20T09:42:08;31.10;99.90
6518;DHT22;3292;48.944;9.240;2023-08-20T09:44:36;31.30;99.90
6518;DHT22;3292;48.944;9.240;2023-08-20T09:47:06;31.50;99.90
6518;DHT22;3292;48.944;9.240;2023-08-20T09:49:38;31.80;99.90
6518;DHT22;3292;48.944;9.240;2023-08-20T09:52:06;31.80;99.90
6518;DHT22;3292;48.944;9.240;2023-08-20T09:54:54;31.90;99.90
6518;DHT22;3292;48.944;9.240;2023-08-20T09:57:33;31.90;99.90
6518;DHT22;3292;48.944;9.240;2023-08-20T10:00:00;32.00;99.90
6518;DHT22;3292;48.944;9.240;2023-08-20T10:02:28;32.00;99.90
6518;DHT22;3292;48.944;9.240;2023-08-20T10:04:57;31.70;99.90
6518;DHT22;3292;48.944;9.240;2023-08-20T10:07:28;31.90;99.90
6518;DHT22;3292;48.944;9.240;2023-08-20T10:09:58;32.10;99.90
6518;DHT22;3292;48.944;9.240;2023-08-20T10:12:26;32.20;99.90
6518;DHT22;3292;48.944;9.240;2023-08-20T10:14:53;32.10;99.90
6518;DHT22;3292;48.944;9.240;2023-08-20T10:17:22;32.30;99.90
6518;DHT22;3292;48.944;9.240;2023-08-20T10:19:50;32.10;99.90
6518;DHT22;3292;48.944;9.240;2023-08-20T10:22:18;32.10;99.90
6518;DHT22;3292;48.944;9.240;2023-08-20T10:24:49;32.30;99.90
6518;DHT22;3292;48.944;9.240;2023-08-20T10:27:26;31.90;99.90
6518;DHT22;3292;48.944;9.240;2023-08-20T10:29:53;31.90;99.90
6518;DHT22;3292;48.944;9.240;2023-08-20T10:32:22;32.10;99.90
6518;DHT22;3292;48.944;9.240;2023-08-20T10:35:07;32.10;99.90
6518;DHT22;3292;48.944;9.240;2023-08-20T10:37:36;31.80;99.90
6518;DHT22;3292;48.944;9.240;2023-08-20T10:40:06;31.70;99.90
6518;DHT22;3292;48.944;9.240;2023-08-20T10:42:40;32.00;99.90
6518;DHT22;3292;48.944;9.240;2023-08-20T10:45:08;32.20;99.90
6518;DHT22;3292;48.944;9.240;2023-08-20T10:47:42;32.10;99.90
6518;DHT22;3292;48.944;9.240;2023-08-20T10:50:11;31.70;99.90
6518;DHT22;3292;48.944;9.240;2023-08-20T10:52:40;31.80;99.90
6518;DHT22;3292;48.944;9.240;2023-08-20T10:55:08;32.10;99.90
6518;DHT22;3292;48.944;9.240;2023-08-20T10:57:35;32.00;99.90
6518;DHT22;3292;48.944;9.240;2023-08-20T11:00:04;32.10;99.90
6518;DHT22;3292;48.944;9.240;2023-08-20T11:02:37;32.10;99.90
6518;DHT22;3292;48.944;9.240;2023-08-20T11:05:09;32.10;99.90
6518;DHT22;3292;48.944;9.240;2023-08-20T11:07:45;32.50;99.90
6518;DHT22;3292;48.944;9.240;2023-08-20T11:10:13;32.80;99.90
6518;DHT22;3292;48.944;9.240;2023-08-20T11:12:40;32.70;99.90
6518;DHT22;3292;48.944;9.240;2023-08-20T11:15:09;32.90;99.90
6518;DHT22;3292;48.944;9.240;2023-08-20T11:17:40;32.90;99.90
6518;DHT22;3292;48.944;9.240;2023-08-20T11:20:07;33.00;99.90
6518;DHT22;3292;48.944;9.240;2023-08-20T11:22:36;33.00;99.90
6518;DHT22;3292;48.944;9.240;2023-08-20T11:25:05;33.30;99.90
6518;DHT22;3292;48.944;9.240;2023-08-20T11:27:32;33.40;99.90
6518;DHT22;3292;48.944;9.240;2023-08-20T11:29:59;33.60;99.90
6518;DHT22;3292;48.944;9.240;2023-08-20T11:32:26;33.60;99.90
6518;DHT22;3292;48.944;9.240;2023-08-20T11:34:53;33.70;99.90
6518;DHT22;3292;48.944;9.240;2023-08-20T11:37:21;33.70;99.90
6518;DHT22;3292;48.944;9.240;2023-08-20T11:39:48;33.80;99.90
6518;DHT22;3292;48.944;9.240;2023-08-20T11:42:16;33.90;99.90
6518;DHT22;3292;48.944;9.240;2023-08-20T11:44:45;33.80;99.90
6518;DHT22;3292;48.944;9.240;2023-08-20T11:47:16;33.80;99.90
6518;DHT22;3292;48.944;9.240;2023-08-20T11:49:44;33.80;99.90
6518;DHT22;3292;48.944;9.240;2023-08-20T11:52:11;33.90;99.90
6518;DHT22;3292;48.944;9.240;2023-08-20T11:54:39;34.10;99.90
6518;DHT22;3292;48.944;9.240;2023-08-20T11:57:06;34.10;99.90
6518;DHT22;3292;48.944;9.240;2023-08-20T11:59:35;34.10;99.90
6518;DHT22;3292;48.944;9.240;2023-08-20T12:02:03;34.20;99.90
6518;DHT22;3292;48.944;9.240;2023-08-20T12:04:31;34.20;99.90
6518;DHT22;3292;48.944;9.240;2023-08-20T12:07:03;34.20;99.90
6518;DHT22;3292;48.944;9.240;2023-08-20T12:09:31;34.30;99.90
6518;DHT22;3292;48.944;9.240;2023-08-20T12:11:58;34.40;99.90
6518;DHT22;3292;48.944;9.240;2023-08-20T12:14:25;34.50;99.90
6518;DHT22;3292;48.944;9.240;2023-08-20T12:16:54;34.50;99.90
6518;DHT22;3292;48.944;9.240;2023-08-20T12:19:21;34.50;99.90
6518;DHT22;3292;48.944;9.240;2023-08-20T12:21:49;34.60;99.90
6518;DHT22;3292;48.944;9.240;2023-08-20T12:24:16;34.60;99.90
6518;DHT22;3292;48.944;9.240;2023-08-20T12:26:44;34.50;99.90
6518;DHT22;3292;48.944;9.240;2023-08-20T12:29:11;34.30;99.90
6518;DHT22;3292;48.944;9.240;2023-08-20T12:31:38;33.90;99.90
6518;DHT22;3292;48.944;9.240;2023-08-20T12:34:07;33.90;99.90
6518;DHT22;3292;48.944;9.240;2023-08-20T12:36:35;33.90;99.90
6518;DHT22;3292;48.944;9.240;2023-08-20T12:39:02;34.10;99.90
6518;DHT22;3292;48.944;9.240;2023-08-20T12:41:30;34.20;99.90
6518;DHT22;3292;48.944;9.240;2023-08-20T12:43:57;34.30;99.90
6518;DHT22;3292;48.944;9.240;2023-08-20T12:46:24;34.50;99.90
6518;DHT22;3292;48.944;9.240;2023-08-20T12:48:51;34.60;99.90
6518;DHT22;3292;48.944;9.240;2023-08-20T12:51:19;34.50;99.90
6518;DHT22;3292;48.944;9.240;2023-08-20T12:53:46;34.50;99.90
6518;DHT22;3292;48.944;9.240;2023-08-20T12:56:12;34.30;99.90
6518;DHT22;3292;48.944;9.240;2023-08-20T12:58:41;34.30;99.90
6518;DHT22;3292;48.944;9.240;2023-08-20T13:01:08;34.40;99.90
6518;DHT22;3292;48.944;9.240;2023-08-20T13:03:35;34.20;99.90
6518;DHT22;3292;48.944;9.240;2023-08-20T13:06:04;34.20;99.90
6518;DHT22;3292;48.944;9.240;2023-08-20T13:08:33;34.30;99.90
6518;DHT22;3292;48.944;9.240;2023-08-20T13:11:00;34.30;99.90
6518;DHT22;3292;48.944;9.240;2023-08-20T13:13:31;34.30;99.90
6518;DHT22;3292;48.944;9.240;2023-08-20T13:15:59;34.00;99.90
6518;DHT22;3292;48.944;9.240;2023-08-20T13:18:27;33.50;99.90
6518;DHT22;3292;48.944;9.240;2023-08-20T13:20:54;33.60;99.90
6518;DHT22;3292;48.944;9.240;2023-08-20T13:23:21;33.80;99.90
6518;DHT22;3292;48.944;9.240;2023-08-20T13:25:50;34.00;99.90
6518;DHT22;3292;48.944;9.240;2023-08-20T13:28:17;34.20;99.90
6518;DHT22;3292;48.944;9.240;2023-08-20T13:30:44;34.30;99.90
6518;DHT22;3292;48.944;9.240;2023-08-20T13:33:12;34.20;99.90
6518;DHT22;3292;48.944;9.240;2023-08-20T13:35:39;34.20;99.90
6518;DHT22;3292;48.944;9.240;2023-08-20T13:38:06;33.90;99.90
6518;DHT22;3292;48.944;9.240;2023-08-20T13:40:34;34.00;99.90
6518;DHT22;3292;48.944;9.240;2023-08-20T13:43:02;34.10;99.90
6518;DHT22;3292;48.944;9.240;2023-08-20T13:45:29;34.10;99.90
6518;DHT22;3292;48.944;9.240;2023-08-20T13:47:56;34.10;99.90
6518;DHT22;3292;48.944;9.240;2023-08-20T13:50:23;34.20;99.90
6518;DHT22;3292;48.944;9.240;2023-08-20T13:52:50;34.20;99.90
6518;DHT22;3292;48.944;9.240;2023-08-20T13:55:17;34.00;99.90
6518;DHT22;3292;48.944;9.240;2023-08-20T13:57:43;33.80;99.90
6518;DHT22;3292;48.944;9.240;2023-08-20T14:00:12;33.90;99.90
6518;DHT22;3292;48.944;9.240;2023-08-20T14:02:40;34.00;99.90
6518;DHT22;3292;48.944;9.240;2023-08-20T14:05:07;34.10;99.90
6518;DHT22;3292;48.944;9.240;2023-08-20T14:07:34;34.20;99.90
6518;DHT22;3292;48.944;9.240;2023-08-20T14:10:01;34.30;99.90
6518;DHT22;3292;48.944;9.240;2023-08-20T14:12:29;34.20;99.90
6518;DHT22;3292;48.944;9.240;2023-08-20T14:14:56;34.40;99.90
6518;DHT22;3292;48.944;9.240;2023-08-20T14:17:24;34.50;99.90
6518;DHT22;3292;48.944;9.240;2023-08-20T14:19:51;34.60;99.90
6518;DHT22;3292;48.944;9.240;2023-08-20T14:22:18;34.70;99.10
6518;DHT22;3292;48.944;9.240;2023-08-20T14:24:44;34.40;97.80
6518;DHT22;3292;48.944;9.240;2023-08-20T14:27:11;34.30;98.40
6518;DHT22;3292;48.944;9.240;2023-08-20T14:29:38;34.20;99.50
6518;DHT22;3292;48.944;9.240;2023-08-20T14:32:05;34.10;97.40
6518;DHT22;3292;48.944;9.240;2023-08-20T14:34:33;34.20;98.80
6518;DHT22;3292;48.944;9.240;2023-08-20T14:37:00;34.20;97.10
6518;DHT22;3292;48.944;9.240;2023-08-20T14:39:27;34.20;98.20
6518;DHT22;3292;48.944;9.240;2023-08-20T14:41:56;34.30;99.90
6518;DHT22;3292;48.944;9.240;2023-08-20T14:44:24;34.20;96.30
6518;DHT22;3292;48.944;9.240;2023-08-20T14:46:55;34.20;95.70
6518;DHT22;3292;48.944;9.240;2023-08-20T14:49:22;34.10;95.10
6518;DHT22;3292;48.944;9.240;2023-08-20T14:51:51;34.10;96.60
6518;DHT22;3292;48.944;9.240;2023-08-20T14:54:18;34.10;94.80
6518;DHT22;3292;48.944;9.240;2023-08-20T14:56:45;34.00;94.00
6518;DHT22;3292;48.944;9.240;2023-08-20T14:59:13;34.10;94.60
6518;DHT22;3292;48.944;9.240;2023-08-20T15:01:41;34.20;94.00
6518;DHT22;3292;48.944;9.240;2023-08-20T15:04:09;34.20;94.80
6518;DHT22;3292;48.944;9.240;2023-08-20T15:06:39;34.20;93.80
6518;DHT22;3292;48.944;9.240;2023-08-20T15:09:08;34.20;93.90
6518;DHT22;3292;48.944;9.240;2023-08-20T15:11:41;34.10;94.90
6518;DHT22;3292;48.944;9.240;2023-08-20T15:14:09;34.00;93.00
6518;DHT22;3292;48.944;9.240;2023-08-20T15:16:37;33.90;92.50
6518;DHT22;3292;48.944;9.240;2023-08-20T15:19:04;33.70;93.20
6518;DHT22;3292;48.944;9.240;2023-08-20T15:21:31;33.60;92.90
6518;DHT22;3292;48.944;9.240;2023-08-20T15:24:02;33.60;93.20
6518;DHT22;3292;48.944;9.240;2023-08-20T15:26:32;33.60;94.00
6518;DHT22;3292;48.944;9.240;2023-08-20T15:28:59;33.60;93.90
6518;DHT22;3292;48.944;9.240;2023-08-20T15:31:27;33.60;94.40
6518;DHT22;3292;48.944;9.240;2023-08-20T15:34:00;33.60;95.10
6518;DHT22;3292;48.944;9.240;2023-08-20T15:36:27;33.70;94.30
6518;DHT22;3292;48.944;9.240;2023-08-20T15:38:55;33.70;95.50
6518;DHT22;3292;48.944;9.240;2023-08-20T15:41:23;33.70;94.20
6518;DHT22;3292;48.944;9.240;2023-08-20T15:43:55;33.70;94.10
6518;DHT22;3292;48.944;9.240;2023-08-20T15:46:22;33.70;94.60
6518;DHT22;3292;48.944;9.240;2023-08-20T15:48:50;33.70;94.40
6518;DHT22;3292;48.944;9.240;2023-08-20T15:51:18;33.60;94.70
6518;DHT22;3292;48.944;9.240;2023-08-20T15:53:45;33.60;96.90
6518;DHT22;3292;48.944;9.240;2023-08-20T15:56:13;33.60;96.30
6518;DHT22;3292;48.944;9.240;2023-08-20T15:58:40;33.60;95.70
6518;DHT22;3292;48.944;9.240;2023-08-20T16:01:10;33.60;95.70
6518;DHT22;3292;48.944;9.240;2023-08-20T16:03:37;33.60;96.50
6518;DHT22;3292;48.944;9.240;2023-08-20T16:06:04;33.50;95.40